sensor_id;sensor_type;location;lat;lon;timestamp;P1;durP1;ratioP1;P2;durP2;ratioP2
19301;SDS011;9785;59.362;12.152;2024-02-23T00:01:04;1.20;;;1.20;;
19301;SDS011;9785;59.362;12.152;2024-02-23T00:03:33;1.20;;;1.20;;
19301;SDS011;9785;59.362;12.152;2024-02-23T00:06:03;1.63;;;1.23;;
19301;SDS011;9785;59.362;12.152;2024-02-23T00:08:32;1.50;;;1.40;;
19301;SDS011;9785;59.362;12.152;2024-02-23T00:11:00;1.60;;;1.50;;
19301;SDS011;9785;59.362;12.152;2024-02-23T00:13:29;1.40;;;1.40;;
19301;SDS011;9785;59.362;12.152;2024-02-23T00:15:58;1.47;;;1.47;;
19301;SDS011;9785;59.362;12.152;2024-02-23T00:18:28;1.37;;;1.30;;
19301;SDS011;9785;59.362;12.152;2024-02-23T00:20:57;1.40;;;1.30;;
19301;SDS011;9785;59.362;12.152;2024-02-23T00:23:25;1.53;;;1.43;;
19301;SDS011;9785;59.362;12.152;2024-02-23T00:25:55;1.40;;;1.40;;
19301;SDS011;9785;59.362;12.152;2024-02-23T00:28:23;1.43;;;1.43;;
19301;SDS011;9785;59.362;12.152;2024-02-23T00:30:52;1.60;;;1.50;;
19301;SDS011;9785;59.362;12.152;2024-02-23T00:33:20;1.43;;;1.43;;
19301;SDS011;9785;59.362;12.152;2024-02-23T00:35:51;1.40;;;1.30;;
19301;SDS011;9785;59.362;12.152;2024-02-23T00:38:19;1.10;;;1.10;;
19301;SDS011;9785;59.362;12.152;2024-02-23T00:40:48;1.57;;;1.47;;
19301;SDS011;9785;59.362;12.152;2024-02-23T00:43:18;1.60;;;1.50;;
19301;SDS011;9785;59.362;12.152;2024-02-23T00:45:47;1.30;;;1.20;;
19301;SDS011;9785;59.362;12.152;2024-02-23T00:48:15;1.10;;;1.10;;
19301;SDS011;9785;59.362;12.152;2024-02-23T00:50:44;1.20;;;1.20;;
19301;SDS011;9785;59.362;12.152;2024-02-23T00:53:14;1.40;;;1.40;;
19301;SDS011;9785;59.362;12.152;2024-02-23T00:55:44;1.40;;;1.40;;
19301;SDS011;9785;59.362;12.152;2024-02-23T00:58:12;1.60;;;1.50;;
19301;SDS011;9785;59.362;12.152;2024-02-23T01:00:42;2.97;;;1.37;;
19301;SDS011;9785;59.362;12.152;2024-02-23T01:03:10;1.30;;;1.30;;
19301;SDS011;9785;59.362;12.152;2024-02-23T01:05:39;1.30;;;1.30;;
19301;SDS011;9785;59.362;12.152;2024-02-23T01:08:09;1.53;;;1.43;;
19301;SDS011;9785;59.362;12.152;2024-02-23T01:10:39;2.40;;;1.70;;
19301;SDS011;9785;59.362;12.152;2024-02-23T01:13:07;1.80;;;1.70;;
19301;SDS011;9785;59.362;12.152;2024-02-23T01:15:36;1.73;;;1.63;;
19301;SDS011;9785;59.362;12.152;2024-02-23T01:18:04;1.80;;;1.67;;
19301;SDS011;9785;59.362;12.152;2024-02-23T01:20:34;2.10;;;1.90;;
19301;SDS011;9785;59.362;12.152;2024-02-23T01:23:03;1.90;;;1.80;;
19301;SDS011;9785;59.362;12.152;2024-02-23T01:25:31;2.50;;;2.30;;
19301;SDS011;9785;59.362;12.152;2024-02-23T01:28:02;2.93;;;2.63;;
19301;SDS011;9785;59.362;12.152;2024-02-23T01:30:31;2.90;;;2.67;;
19301;SDS011;9785;59.362;12.152;2024-02-23T01:33:00;3.37;;;2.90;;
19301;SDS011;9785;59.362;12.152;2024-02-23T01:35:29;3.17;;;2.87;;
19301;SDS011;9785;59.362;12.152;2024-02-23T01:37:58;4.30;;;3.00;;
19301;SDS011;9785;59.362;12.152;2024-02-23T01:40:26;3.87;;;2.90;;
19301;SDS011;9785;59.362;12.152;2024-02-23T01:43:03;3.57;;;3.00;;
19301;SDS011;9785;59.362;12.152;2024-02-23T01:45:32;3.33;;;3.03;;
19301;SDS011;9785;59.362;12.152;2024-02-23T01:48:00;7.73;;;3.63;;
19301;SDS011;9785;59.362;12.152;2024-02-23T01:50:29;3.50;;;3.20;;
19301;SDS011;9785;59.362;12.152;2024-02-23T01:53:00;6.20;;;3.97;;
19301;SDS011;9785;59.362;12.152;2024-02-23T01:55:29;7.00;;;3.97;;
19301;SDS011;9785;59.362;12.152;2024-02-23T01:58:03;7.13;;;3.57;;
19301;SDS011;9785;59.362;12.152;2024-02-23T02:00:34;5.70;;;4.20;;
19301;SDS011;9785;59.362;12.152;2024-02-23T02:03:03;3.93;;;3.53;;
19301;SDS011;9785;59.362;12.152;2024-02-23T02:05:38;3.90;;;3.30;;
19301;SDS011;9785;59.362;12.152;2024-02-23T02:08:06;3.63;;;3.30;;
19301;SDS011;9785;59.362;12.152;2024-02-23T02:10:35;3.13;;;2.90;;
19301;SDS011;9785;59.362;12.152;2024-02-23T02:13:05;4.63;;;3.07;;
19301;SDS011;9785;59.362;12.152;2024-02-23T02:15:34;2.83;;;2.63;;
19301;SDS011;9785;59.362;12.152;2024-02-23T02:18:02;2.60;;;2.40;;
19301;SDS011;9785;59.362;12.152;2024-02-23T02:20:32;2.70;;;2.50;;
19301;SDS011;9785;59.362;12.152;2024-02-23T02:23:01;2.50;;;2.30;;
19301;SDS011;9785;59.362;12.152;2024-02-23T02:25:29;1.80;;;1.70;;
19301;SDS011;9785;59.362;12.152;2024-02-23T02:27:58;1.90;;;1.80;;
19301;SDS011;9785;59.362;12.152;2024-02-23T02:30:28;2.13;;;1.90;;
19301;SDS011;9785;59.362;12.152;2024-02-23T02:32:56;1.87;;;1.77;;
19301;SDS011;9785;59.362;12.152;2024-02-23T02:35:25;1.40;;;1.40;;
19301;SDS011;9785;59.362;12.152;2024-02-23T02:37:53;1.10;;;1.10;;
19301;SDS011;9785;59.362;12.152;2024-02-23T02:40:22;1.50;;;1.40;;
19301;SDS011;9785;59.362;12.152;2024-02-23T02:42:50;1.43;;;1.33;;
19301;SDS011;9785;59.362;12.152;2024-02-23T02:45:19;1.13;;;1.13;;
19301;SDS011;9785;59.362;12.152;2024-02-23T02:47:49;1.20;;;1.20;;
19301;SDS011;9785;59.362;12.152;2024-02-23T02:50:18;1.40;;;1.30;;
19301;SDS011;9785;59.362;12.152;2024-02-23T02:52:46;1.40;;;1.40;;
19301;SDS011;9785;59.362;12.152;2024-02-23T02:55:15;1.33;;;1.23;;
19301;SDS011;9785;59.362;12.152;2024-02-23T02:57:43;1.40;;;1.30;;
19301;SDS011;9785;59.362;12.152;2024-02-23T03:00:12;1.20;;;1.20;;
19301;SDS011;9785;59.362;12.152;2024-02-23T03:02:41;1.17;;;1.17;;
19301;SDS011;9785;59.362;12.152;2024-02-23T03:05:11;1.10;;;1.10;;
19301;SDS011;9785;59.362;12.152;2024-02-23T03:07:39;1.37;;;1.37;;
19301;SDS011;9785;59.362;12.152;2024-02-23T03:10:08;1.30;;;1.30;;
19301;SDS011;9785;59.362;12.152;2024-02-23T03:12:36;1.23;;;1.23;;
19301;SDS011;9785;59.362;12.152;2024-02-23T03:15:05;1.30;;;1.30;;
19301;SDS011;9785;59.362;12.152;2024-02-23T03:17:34;1.20;;;1.20;;
19301;SDS011;9785;59.362;12.152;2024-02-23T03:20:03;1.60;;;1.50;;
19301;SDS011;9785;59.362;12.152;2024-02-23T03:22:36;1.27;;;1.20;;
19301;SDS011;9785;59.362;12.152;2024-02-23T03:25:05;1.67;;;1.50;;
19301;SDS011;9785;59.362;12.152;2024-02-23T03:27:36;1.50;;;1.40;;
19301;SDS011;9785;59.362;12.152;2024-02-23T03:30:05;1.70;;;1.60;;
19301;SDS011;9785;59.362;12.152;2024-02-23T03:32:35;2.17;;;1.97;;
19301;SDS011;9785;59.362;12.152;2024-02-23T03:35:06;1.97;;;1.77;;
19301;SDS011;9785;59.362;12.152;2024-02-23T03:37:37;2.13;;;1.80;;
19301;SDS011;9785;59.362;12.152;2024-02-23T03:40:06;2.00;;;1.90;;
19301;SDS011;9785;59.362;12.152;2024-02-23T03:42:36;2.30;;;2.10;;
19301;SDS011;9785;59.362;12.152;2024-02-23T03:45:06;2.70;;;2.50;;
19301;SDS011;9785;59.362;12.152;2024-02-23T03:47:34;3.30;;;2.60;;
19301;SDS011;9785;59.362;12.152;2024-02-23T03:50:04;3.17;;;2.87;;
19301;SDS011;9785;59.362;12.152;2024-02-23T03:52:32;3.60;;;3.00;;
19301;SDS011;9785;59.362;12.152;2024-02-23T03:55:02;5.00;;;4.00;;
19301;SDS011;9785;59.362;12.152;2024-02-23T03:57:31;6.27;;;4.10;;
19301;SDS011;9785;59.362;12.152;2024-02-23T03:59:59;5.37;;;3.67;;
19301;SDS011;9785;59.362;12.152;2024-02-23T04:02:29;6.10;;;3.73;;
19301;SDS011;9785;59.362;12.152;2024-02-23T04:04:57;9.03;;;3.80;;
19301;SDS011;9785;59.362;12.152;2024-02-23T04:07:26;5.33;;;3.40;;
19301;SDS011;9785;59.362;12.152;2024-02-23T04:09:54;4.00;;;3.20;;
19301;SDS011;9785;59.362;12.152;2024-02-23T04:12:24;3.30;;;3.00;;
19301;SDS011;9785;59.362;12.152;2024-02-23T04:14:53;2.80;;;2.50;;
19301;SDS011;9785;59.362;12.152;2024-02-23T04:17:21;3.10;;;2.57;;
19301;SDS011;9785;59.362;12.152;2024-02-23T04:19:50;2.80;;;2.60;;
19301;SDS011;9785;59.362;12.152;2024-02-23T04:22:18;4.70;;;2.17;;
19301;SDS011;9785;59.362;12.152;2024-02-23T04:24:47;2.27;;;1.93;;
19301;SDS011;9785;59.362;12.152;2024-02-23T04:27:16;2.00;;;1.90;;
19301;SDS011;9785;59.362;12.152;2024-02-23T04:29:45;2.13;;;1.90;;
19301;SDS011;9785;59.362;12.152;2024-02-23T04:32:14;2.13;;;1.80;;
19301;SDS011;9785;59.362;12.152;2024-02-23T04:34:43;1.70;;;1.60;;
19301;SDS011;9785;59.362;12.152;2024-02-23T04:37:11;1.53;;;1.30;;
19301;SDS011;9785;59.362;12.152;2024-02-23T04:39:40;1.37;;;1.37;;
19301;SDS011;9785;59.362;12.152;2024-02-23T04:42:08;1.33;;;1.30;;
19301;SDS011;9785;59.362;12.152;2024-02-23T04:44:37;1.27;;;1.10;;
19301;SDS011;9785;59.362;12.152;2024-02-23T04:47:07;2.33;;;1.23;;
19301;SDS011;9785;59.362;12.152;2024-02-23T04:49:35;1.07;;;1.07;;
19301;SDS011;9785;59.362;12.152;2024-02-23T04:52:05;0.93;;;0.90;;
19301;SDS011;9785;59.362;12.152;2024-02-23T04:54:35;1.00;;;1.00;;
19301;SDS011;9785;59.362;12.152;2024-02-23T04:57:03;1.00;;;1.00;;
19301;SDS011;9785;59.362;12.152;2024-02-23T04:59:32;2.93;;;0.93;;
19301;SDS011;9785;59.362;12.152;2024-02-23T05:02:00;1.50;;;1.10;;
19301;SDS011;9785;59.362;12.152;2024-02-23T05:04:30;0.87;;;0.87;;
19301;SDS011;9785;59.362;12.152;2024-02-23T05:06:59;0.70;;;0.70;;
19301;SDS011;9785;59.362;12.152;2024-02-23T05:09:28;0.70;;;0.70;;
19301;SDS011;9785;59.362;12.152;2024-02-23T05:11:56;0.60;;;0.60;;
19301;SDS011;9785;59.362;12.152;2024-02-23T05:14:25;0.70;;;0.70;;
19301;SDS011;9785;59.362;12.152;2024-02-23T05:16:54;0.77;;;0.77;;
19301;SDS011;9785;59.362;12.152;2024-02-23T05:19:23;0.67;;;0.67;;
19301;SDS011;9785;59.362;12.152;2024-02-23T05:21:52;0.87;;;0.87;;
19301;SDS011;9785;59.362;12.152;2024-02-23T05:24:21;0.80;;;0.80;;
19301;SDS011;9785;59.362;12.152;2024-02-23T05:26:49;0.70;;;0.70;;
19301;SDS011;9785;59.362;12.152;2024-02-23T05:29:18;0.70;;;0.70;;
19301;SDS011;9785;59.362;12.152;2024-02-23T05:31:49;0.77;;;0.77;;
19301;SDS011;9785;59.362;12.152;2024-02-23T05:34:18;2.80;;;0.77;;
19301;SDS011;9785;59.362;12.152;2024-02-23T05:36:47;0.70;;;0.70;;
19301;SDS011;9785;59.362;12.152;2024-02-23T05:39:18;1.70;;;1.03;;
19301;SDS011;9785;59.362;12.152;2024-02-23T05:41:46;1.00;;;0.90;;
19301;SDS011;9785;59.362;12.152;2024-02-23T05:44:15;0.63;;;0.63;;
19301;SDS011;9785;59.362;12.152;2024-02-23T05:46:43;0.60;;;0.60;;
19301;SDS011;9785;59.362;12.152;2024-02-23T05:49:12;0.80;;;0.80;;
19301;SDS011;9785;59.362;12.152;2024-02-23T05:51:40;0.70;;;0.70;;
19301;SDS011;9785;59.362;12.152;2024-02-23T05:54:09;0.77;;;0.77;;
19301;SDS011;9785;59.362;12.152;2024-02-23T05:56:39;0.80;;;0.80;;
19301;SDS011;9785;59.362;12.152;2024-02-23T05:59:08;0.60;;;0.60;;
19301;SDS011;9785;59.362;12.152;2024-02-23T06:01:36;0.63;;;0.63;;
19301;SDS011;9785;59.362;12.152;2024-02-23T06:04:05;0.60;;;0.60;;
19301;SDS011;9785;59.362;12.152;2024-02-23T06:06:34;0.57;;;0.57;;
19301;SDS011;9785;59.362;12.152;2024-02-23T06:09:02;0.50;;;0.50;;
19301;SDS011;9785;59.362;12.152;2024-02-23T06:11:32;0.53;;;0.53;;
19301;SDS011;9785;59.362;12.152;2024-02-23T06:14:02;0.70;;;0.63;;
19301;SDS011;9785;59.362;12.152;2024-02-23T06:16:30;0.67;;;0.67;;
19301;SDS011;9785;59.362;12.152;2024-02-23T06:18:59;0.70;;;0.70;;
19301;SDS011;9785;59.362;12.152;2024-02-23T06:21:29;0.50;;;0.50;;
19301;SDS011;9785;59.362;12.152;2024-02-23T06:23:58;0.57;;;0.57;;
19301;SDS011;9785;59.362;12.152;2024-02-23T06:26:27;0.60;;;0.60;;
19301;SDS011;9785;59.362;12.152;2024-02-23T06:28:56;0.80;;;0.80;;
19301;SDS011;9785;59.362;12.152;2024-02-23T06:31:25;0.57;;;0.57;;
19301;SDS011;9785;59.362;12.152;2024-02-23T06:33:54;0.50;;;0.50;;
19301;SDS011;9785;59.362;12.152;2024-02-23T06:36:22;0.80;;;0.80;;
19301;SDS011;9785;59.362;12.152;2024-02-23T06:38:51;1.00;;;1.00;;
19301;SDS011;9785;59.362;12.152;2024-02-23T06:41:19;1.10;;;1.10;;
19301;SDS011;9785;59.362;12.152;2024-02-23T06:43:48;0.97;;;0.97;;
19301;SDS011;9785;59.362;12.152;2024-02-23T06:46:18;1.57;;;1.47;;
19301;SDS011;9785;59.362;12.152;2024-02-23T06:48:48;1.10;;;1.00;;
19301;SDS011;9785;59.362;12.152;2024-02-23T06:51:17;1.07;;;1.07;;
19301;SDS011;9785;59.362;12.152;2024-02-23T06:53:46;1.00;;;1.00;;
19301;SDS011;9785;59.362;12.152;2024-02-23T06:56:15;0.80;;;0.80;;
19301;SDS011;9785;59.362;12.152;2024-02-23T06:58:43;1.43;;;1.10;;
19301;SDS011;9785;59.362;12.152;2024-02-23T07:01:12;0.70;;;0.70;;
19301;SDS011;9785;59.362;12.152;2024-02-23T07:03:41;1.87;;;0.67;;
19301;SDS011;9785;59.362;12.152;2024-02-23T07:06:13;0.50;;;0.50;;
19301;SDS011;9785;59.362;12.152;2024-02-23T07:08:45;0.50;;;0.50;;
19301;SDS011;9785;59.362;12.152;2024-02-23T07:11:13;0.30;;;0.30;;
19301;SDS011;9785;59.362;12.152;2024-02-23T07:13:42;0.27;;;0.27;;
19301;SDS011;9785;59.362;12.152;2024-02-23T07:16:11;2.17;;;0.37;;
19301;SDS011;9785;59.362;12.152;2024-02-23T07:18:40;0.27;;;0.27;;
19301;SDS011;9785;59.362;12.152;2024-02-23T07:21:08;0.77;;;0.30;;
19301;SDS011;9785;59.362;12.152;2024-02-23T07:23:39;1.13;;;0.23;;
19301;SDS011;9785;59.362;12.152;2024-02-23T07:26:07;1.50;;;0.20;;
19301;SDS011;9785;59.362;12.152;2024-02-23T07:28:36;1.90;;;0.30;;
19301;SDS011;9785;59.362;12.152;2024-02-23T07:31:04;2.87;;;0.50;;
19301;SDS011;9785;59.362;12.152;2024-02-23T07:33:33;0.33;;;0.23;;
19301;SDS011;9785;59.362;12.152;2024-02-23T07:36:02;0.27;;;0.20;;
19301;SDS011;9785;59.362;12.152;2024-02-23T07:38:30;1.20;;;0.10;;
19301;SDS011;9785;59.362;12.152;2024-02-23T07:41:00;0.67;;;0.23;;
19301;SDS011;9785;59.362;12.152;2024-02-23T07:43:29;0.40;;;0.20;;
19301;SDS011;9785;59.362;12.152;2024-02-23T07:45:57;0.37;;;0.20;;
19301;SDS011;9785;59.362;12.152;2024-02-23T07:48:26;0.57;;;0.10;;
19301;SDS011;9785;59.362;12.152;2024-02-23T07:50:54;2.80;;;0.27;;
19301;SDS011;9785;59.362;12.152;2024-02-23T07:53:23;0.03;;;0.03;;
19301;SDS011;9785;59.362;12.152;2024-02-23T07:55:51;0.70;;;0.10;;
19301;SDS011;9785;59.362;12.152;2024-02-23T07:58:21;0.50;;;0.17;;
19301;SDS011;9785;59.362;12.152;2024-02-23T08:00:50;0.40;;;0.17;;
19301;SDS011;9785;59.362;12.152;2024-02-23T08:03:19;1.10;;;0.20;;
19301;SDS011;9785;59.362;12.152;2024-02-23T08:05:47;0.13;;;0.00;;
19301;SDS011;9785;59.362;12.152;2024-02-23T08:08:16;0.17;;;0.10;;
19301;SDS011;9785;59.362;12.152;2024-02-23T08:10:45;0.10;;;0.10;;
19301;SDS011;9785;59.362;12.152;2024-02-23T08:13:13;0.77;;;0.00;;
19301;SDS011;9785;59.362;12.152;2024-02-23T08:15:44;0.10;;;0.10;;
19301;SDS011;9785;59.362;12.152;2024-02-23T08:18:12;1.30;;;0.23;;
19301;SDS011;9785;59.362;12.152;2024-02-23T08:20:41;0.70;;;0.30;;
19301;SDS011;9785;59.362;12.152;2024-02-23T08:23:09;0.00;;;0.00;;
19301;SDS011;9785;59.362;12.152;2024-02-23T08:25:38;0.43;;;0.20;;
19301;SDS011;9785;59.362;12.152;2024-02-23T08:28:06;0.93;;;0.20;;
19301;SDS011;9785;59.362;12.152;2024-02-23T08:30:35;0.63;;;0.63;;
19301;SDS011;9785;59.362;12.152;2024-02-23T08:33:05;0.80;;;0.20;;
19301;SDS011;9785;59.362;12.152;2024-02-23T08:35:35;0.50;;;0.20;;
19301;SDS011;9785;59.362;12.152;2024-02-23T08:38:04;2.20;;;0.27;;
19301;SDS011;9785;59.362;12.152;2024-02-23T08:40:34;0.20;;;0.20;;
19301;SDS011;9785;59.362;12.152;2024-02-23T08:43:03;1.63;;;0.27;;
19301;SDS011;9785;59.362;12.152;2024-02-23T08:45:31;1.50;;;0.30;;
19301;SDS011;9785;59.362;12.152;2024-02-23T08:48:00;1.50;;;0.37;;
19301;SDS011;9785;59.362;12.152;2024-02-23T08:50:31;0.20;;;0.20;;
19301;SDS011;9785;59.362;12.152;2024-02-23T08:53:00;0.30;;;0.20;;
19301;SDS011;9785;59.362;12.152;2024-02-23T08:55:29;0.33;;;0.20;;
19301;SDS011;9785;59.362;12.152;2024-02-23T08:57:59;0.40;;;0.23;;
19301;SDS011;9785;59.362;12.152;2024-02-23T09:00:28;0.40;;;0.20;;
19301;SDS011;9785;59.362;12.152;2024-02-23T09:02:56;0.67;;;0.33;;
19301;SDS011;9785;59.362;12.152;2024-02-23T09:05:25;1.90;;;0.67;;
19301;SDS011;9785;59.362;12.152;2024-02-23T09:07:55;1.23;;;0.33;;
19301;SDS011;9785;59.362;12.152;2024-02-23T09:10:24;0.27;;;0.10;;
19301;SDS011;9785;59.362;12.152;2024-02-23T09:12:52;0.73;;;0.33;;
19301;SDS011;9785;59.362;12.152;2024-02-23T09:15:21;2.63;;;0.90;;
19301;SDS011;9785;59.362;12.152;2024-02-23T09:17:49;3.00;;;0.57;;
19301;SDS011;9785;59.362;12.152;2024-02-23T09:20:18;0.20;;;0.20;;
19301;SDS011;9785;59.362;12.152;2024-02-23T09:22:47;0.10;;;0.10;;
19301;SDS011;9785;59.362;12.152;2024-02-23T09:25:17;1.50;;;0.23;;
19301;SDS011;9785;59.362;12.152;2024-02-23T09:27:46;0.77;;;0.30;;
19301;SDS011;9785;59.362;12.152;2024-02-23T09:30:14;0.73;;;0.23;;
19301;SDS011;9785;59.362;12.152;2024-02-23T09:32:43;0.73;;;0.20;;
19301;SDS011;9785;59.362;12.152;2024-02-23T09:35:12;0.50;;;0.20;;
19301;SDS011;9785;59.362;12.152;2024-02-23T09:37:41;0.53;;;0.07;;
19301;SDS011;9785;59.362;12.152;2024-02-23T09:40:10;0.57;;;0.20;;
19301;SDS011;9785;59.362;12.152;2024-02-23T09:42:40;0.57;;;0.10;;
19301;SDS011;9785;59.362;12.152;2024-02-23T09:45:10;0.10;;;0.00;;
19301;SDS011;9785;59.362;12.152;2024-02-23T09:47:40;0.10;;;0.07;;
19301;SDS011;9785;59.362;12.152;2024-02-23T09:50:10;0.77;;;0.10;;
19301;SDS011;9785;59.362;12.152;2024-02-23T09:52:39;0.10;;;0.10;;
19301;SDS011;9785;59.362;12.152;2024-02-23T09:55:08;2.00;;;0.20;;
19301;SDS011;9785;59.362;12.152;2024-02-23T09:57:36;0.77;;;0.20;;
19301;SDS011;9785;59.362;12.152;2024-02-23T10:00:07;0.10;;;0.10;;
19301;SDS011;9785;59.362;12.152;2024-02-23T10:02:36;1.20;;;0.17;;
19301;SDS011;9785;59.362;12.152;2024-02-23T10:05:05;1.33;;;0.20;;
19301;SDS011;9785;59.362;12.152;2024-02-23T10:07:35;0.30;;;0.20;;
19301;SDS011;9785;59.362;12.152;2024-02-23T10:10:06;0.10;;;0.10;;
19301;SDS011;9785;59.362;12.152;2024-02-23T10:12:34;0.97;;;0.20;;
19301;SDS011;9785;59.362;12.152;2024-02-23T10:15:03;0.30;;;0.10;;
19301;SDS011;9785;59.362;12.152;2024-02-23T10:17:32;2.47;;;0.27;;
19301;SDS011;9785;59.362;12.152;2024-02-23T10:20:02;3.97;;;0.10;;
19301;SDS011;9785;59.362;12.152;2024-02-23T10:22:31;0.53;;;0.20;;
19301;SDS011;9785;59.362;12.152;2024-02-23T10:25:01;0.53;;;0.10;;
19301;SDS011;9785;59.362;12.152;2024-02-23T10:27:31;0.00;;;0.00;;
19301;SDS011;9785;59.362;12.152;2024-02-23T10:29:59;0.10;;;0.10;;
19301;SDS011;9785;59.362;12.152;2024-02-23T10:32:29;0.47;;;0.10;;
19301;SDS011;9785;59.362;12.152;2024-02-23T10:35:00;1.20;;;0.20;;
19301;SDS011;9785;59.362;12.152;2024-02-23T10:37:30;1.40;;;0.10;;
19301;SDS011;9785;59.362;12.152;2024-02-23T10:39:59;0.20;;;0.07;;
19301;SDS011;9785;59.362;12.152;2024-02-23T10:42:30;0.60;;;0.00;;
19301;SDS011;9785;59.362;12.152;2024-02-23T10:45:01;0.30;;;0.30;;
19301;SDS011;9785;59.362;12.152;2024-02-23T10:47:30;0.43;;;0.20;;
19301;SDS011;9785;59.362;12.152;2024-02-23T10:50:01;0.87;;;0.17;;
19301;SDS011;9785;59.362;12.152;2024-02-23T10:52:31;0.30;;;0.30;;
19301;SDS011;9785;59.362;12.152;2024-02-23T10:55:00;2.33;;;0.40;;
19301;SDS011;9785;59.362;12.152;2024-02-23T10:57:30;0.50;;;0.30;;
19301;SDS011;9785;59.362;12.152;2024-02-23T10:59:59;1.57;;;0.40;;
19301;SDS011;9785;59.362;12.152;2024-02-23T11:02:31;1.00;;;0.40;;
19301;SDS011;9785;59.362;12.152;2024-02-23T11:05:03;3.50;;;0.43;;
19301;SDS011;9785;59.362;12.152;2024-02-23T11:07:33;1.63;;;0.20;;
19301;SDS011;9785;59.362;12.152;2024-02-23T11:10:01;2.97;;;0.40;;
19301;SDS011;9785;59.362;12.152;2024-02-23T11:12:33;2.20;;;0.50;;
19301;SDS011;9785;59.362;12.152;2024-02-23T11:15:02;2.27;;;0.60;;
19301;SDS011;9785;59.362;12.152;2024-02-23T11:17:31;3.33;;;0.90;;
19301;SDS011;9785;59.362;12.152;2024-02-23T11:20:03;2.73;;;0.60;;
19301;SDS011;9785;59.362;12.152;2024-02-23T11:22:34;1.20;;;0.70;;
19301;SDS011;9785;59.362;12.152;2024-02-23T11:25:05;4.17;;;0.57;;
19301;SDS011;9785;59.362;12.152;2024-02-23T11:27:35;5.90;;;0.57;;
19301;SDS011;9785;59.362;12.152;2024-02-23T11:30:04;2.73;;;0.60;;
19301;SDS011;9785;59.362;12.152;2024-02-23T11:32:35;3.67;;;0.70;;
19301;SDS011;9785;59.362;12.152;2024-02-23T11:35:08;8.37;;;1.47;;
19301;SDS011;9785;59.362;12.152;2024-02-23T11:37:46;4.73;;;1.00;;
19301;SDS011;9785;59.362;12.152;2024-02-23T11:40:16;4.80;;;0.60;;
19301;SDS011;9785;59.362;12.152;2024-02-23T11:42:46;8.13;;;0.83;;
19301;SDS011;9785;59.362;12.152;2024-02-23T11:45:14;4.70;;;0.70;;
19301;SDS011;9785;59.362;12.152;2024-02-23T11:47:43;3.63;;;0.63;;
19301;SDS011;9785;59.362;12.152;2024-02-23T11:50:13;3.20;;;0.50;;
19301;SDS011;9785;59.362;12.152;2024-02-23T11:52:46;2.30;;;1.03;;
19301;SDS011;9785;59.362;12.152;2024-02-23T11:55:17;4.07;;;1.17;;
19301;SDS011;9785;59.362;12.152;2024-02-23T11:57:49;2.80;;;0.67;;
19301;SDS011;9785;59.362;12.152;2024-02-23T12:00:30;3.80;;;0.90;;
19301;SDS011;9785;59.362;12.152;2024-02-23T12:02:59;2.60;;;0.90;;
19301;SDS011;9785;59.362;12.152;2024-02-23T12:05:29;6.90;;;1.87;;
19301;SDS011;9785;59.362;12.152;2024-02-23T12:07:58;7.07;;;1.20;;
19301;SDS011;9785;59.362;12.152;2024-02-23T12:10:27;9.30;;;1.43;;
19301;SDS011;9785;59.362;12.152;2024-02-23T12:12:56;6.57;;;1.30;;
19301;SDS011;9785;59.362;12.152;2024-02-23T12:15:25;10.93;;;1.50;;
19301;SDS011;9785;59.362;12.152;2024-02-23T12:17:57;7.70;;;1.20;;
19301;SDS011;9785;59.362;12.152;2024-02-23T12:20:28;6.83;;;1.27;;
19301;SDS011;9785;59.362;12.152;2024-02-23T12:22:57;8.13;;;1.77;;
19301;SDS011;9785;59.362;12.152;2024-02-23T12:25:26;12.17;;;1.63;;
19301;SDS011;9785;59.362;12.152;2024-02-23T12:27:55;9.87;;;1.37;;
19301;SDS011;9785;59.362;12.152;2024-02-23T12:30:23;12.00;;;1.80;;
19301;SDS011;9785;59.362;12.152;2024-02-23T12:33:02;15.03;;;1.90;;
19301;SDS011;9785;59.362;12.152;2024-02-23T12:35:32;7.07;;;1.33;;
19301;SDS011;9785;59.362;12.152;2024-02-23T12:38:02;11.10;;;2.63;;
19301;SDS011;9785;59.362;12.152;2024-02-23T12:40:31;14.47;;;1.90;;
19301;SDS011;9785;59.362;12.152;2024-02-23T12:42:59;18.03;;;2.00;;
19301;SDS011;9785;59.362;12.152;2024-02-23T12:45:28;9.27;;;1.93;;
19301;SDS011;9785;59.362;12.152;2024-02-23T12:47:56;12.87;;;2.40;;
19301;SDS011;9785;59.362;12.152;2024-02-23T12:50:25;6.63;;;2.10;;
19301;SDS011;9785;59.362;12.152;2024-02-23T12:52:55;14.23;;;1.67;;
19301;SDS011;9785;59.362;12.152;2024-02-23T12:55:24;11.77;;;1.20;;
19301;SDS011;9785;59.362;12.152;2024-02-23T12:57:52;13.80;;;1.60;;
19301;SDS011;9785;59.362;12.152;2024-02-23T13:00:21;8.93;;;1.43;;
19301;SDS011;9785;59.362;12.152;2024-02-23T13:02:49;11.03;;;1.40;;
19301;SDS011;9785;59.362;12.152;2024-02-23T13:05:18;4.67;;;1.20;;
19301;SDS011;9785;59.362;12.152;2024-02-23T13:07:46;6.60;;;1.90;;
19301;SDS011;9785;59.362;12.152;2024-02-23T13:10:17;7.60;;;1.83;;
19301;SDS011;9785;59.362;12.152;2024-02-23T13:12:46;5.33;;;1.13;;
19301;SDS011;9785;59.362;12.152;2024-02-23T13:15:16;10.17;;;1.40;;
19301;SDS011;9785;59.362;12.152;2024-02-23T13:17:47;10.93;;;2.33;;
19301;SDS011;9785;59.362;12.152;2024-02-23T13:20:15;8.90;;;1.33;;
19301;SDS011;9785;59.362;12.152;2024-02-23T13:22:44;7.57;;;1.83;;
19301;SDS011;9785;59.362;12.152;2024-02-23T13:25:12;8.17;;;0.97;;
19301;SDS011;9785;59.362;12.152;2024-02-23T13:27:42;10.10;;;1.67;;
19301;SDS011;9785;59.362;12.152;2024-02-23T13:30:11;8.90;;;1.60;;
19301;SDS011;9785;59.362;12.152;2024-02-23T13:32:40;3.77;;;1.07;;
19301;SDS011;9785;59.362;12.152;2024-02-23T13:35:08;12.97;;;1.80;;
19301;SDS011;9785;59.362;12.152;2024-02-23T13:37:37;12.90;;;1.77;;
19301;SDS011;9785;59.362;12.152;2024-02-23T13:40:06;10.40;;;2.30;;
19301;SDS011;9785;59.362;12.152;2024-02-23T13:42:37;12.07;;;1.40;;
19301;SDS011;9785;59.362;12.152;2024-02-23T13:45:08;9.10;;;1.70;;
19301;SDS011;9785;59.362;12.152;2024-02-23T13:47:36;15.73;;;1.93;;
19301;SDS011;9785;59.362;12.152;2024-02-23T13:50:05;11.07;;;1.77;;
19301;SDS011;9785;59.362;12.152;2024-02-23T13:52:34;9.10;;;1.57;;
19301;SDS011;9785;59.362;12.152;2024-02-23T13:55:03;11.50;;;1.77;;
19301;SDS011;9785;59.362;12.152;2024-02-23T13:57:32;10.03;;;2.30;;
19301;SDS011;9785;59.362;12.152;2024-02-23T14:00:01;6.50;;;1.67;;
19301;SDS011;9785;59.362;12.152;2024-02-23T14:02:31;2.13;;;0.70;;
19301;SDS011;9785;59.362;12.152;2024-02-23T14:05:02;11.93;;;1.93;;
19301;SDS011;9785;59.362;12.152;2024-02-23T14:07:33;4.73;;;1.00;;
19301;SDS011;9785;59.362;12.152;2024-02-23T14:10:02;8.70;;;1.47;;
19301;SDS011;9785;59.362;12.152;2024-02-23T14:12:30;14.97;;;1.90;;
19301;SDS011;9785;59.362;12.152;2024-02-23T14:14:59;13.03;;;2.43;;
19301;SDS011;9785;59.362;12.152;2024-02-23T14:17:28;13.37;;;1.80;;
19301;SDS011;9785;59.362;12.152;2024-02-23T14:19:58;9.13;;;2.27;;
19301;SDS011;9785;59.362;12.152;2024-02-23T14:22:27;10.50;;;2.43;;
19301;SDS011;9785;59.362;12.152;2024-02-23T14:24:55;12.80;;;2.17;;
19301;SDS011;9785;59.362;12.152;2024-02-23T14:27:24;9.57;;;1.80;;
19301;SDS011;9785;59.362;12.152;2024-02-23T14:29:57;14.37;;;2.03;;
19301;SDS011;9785;59.362;12.152;2024-02-23T14:32:26;9.43;;;1.43;;
19301;SDS011;9785;59.362;12.152;2024-02-23T14:34:55;13.70;;;2.00;;
19301;SDS011;9785;59.362;12.152;2024-02-23T14:37:25;9.13;;;1.40;;
19301;SDS011;9785;59.362;12.152;2024-02-23T14:39:54;13.77;;;1.43;;
19301;SDS011;9785;59.362;12.152;2024-02-23T14:42:22;12.30;;;1.97;;
19301;SDS011;9785;59.362;12.152;2024-02-23T14:44:51;13.80;;;1.90;;
19301;SDS011;9785;59.362;12.152;2024-02-23T14:47:19;7.60;;;1.40;;
19301;SDS011;9785;59.362;12.152;2024-02-23T14:50:00;5.03;;;1.20;;
19301;SDS011;9785;59.362;12.152;2024-02-23T14:52:30;15.50;;;1.57;;
19301;SDS011;9785;59.362;12.152;2024-02-23T14:54:59;11.67;;;1.83;;
19301;SDS011;9785;59.362;12.152;2024-02-23T14:57:28;7.13;;;1.20;;